Terminal Aerodrome Forecast
Issued by NWS

Home | Current Version | Previous Version | Text Only | Print | Product List | Glossary On
Versions: 1 2 3 4 5 6 7 8 9 10 11 12 13 14 15
000
FTUS44 KOUN 250520
TAFHBR
TAF
KHBR 250520Z 2506/2606 18018KT P6SM SCT015
     FM251000 17014G21KT P6SM BKN015
     FM251300 18013KT P6SM FEW015
     FM251500 19015G22KT P6SM SCT035=

USA.gov is the U.S. government's official web portal to all federal, state and local government web resources and services.